createdAt,value
2022-09-28T00:03:10.253Z,98321.84
2022-09-28T00:08:12.192Z,98317.63
2022-09-28T00:13:14.244Z,98315.94
2022-09-28T00:18:16.240Z,98319.25
2022-09-28T00:23:18.307Z,98296.75
2022-09-28T00:28:20.299Z,98303.34
2022-09-28T00:33:22.698Z,98292.69
2022-09-28T00:38:30.298Z,98273.09
2022-09-28T00:43:32.376Z,98272.50
2022-09-28T00:48:35.825Z,98264.56
2022-09-28T00:53:41.188Z,98266.78
2022-09-28T00:58:48.042Z,98253.53
2022-09-28T01:03:50.035Z,98247.00
2022-09-28T01:08:55.630Z,98234.16
2022-09-28T01:13:59.617Z,98233.75
2022-09-28T01:19:31.390Z,98226.75
2022-09-28T01:24:46.084Z,98219.22
2022-09-28T01:30:08.200Z,98220.09
2022-09-28T01:35:20.488Z,98201.66
2022-09-28T01:40:26.520Z,98204.97
2022-09-28T01:45:34.958Z,98197.63
2022-09-28T01:50:41.173Z,98189.06
2022-09-28T01:55:51.198Z,98178.84
2022-09-28T02:01:01.058Z,98184.56
2022-09-28T02:06:12.480Z,98177.03
2022-09-28T02:11:20.521Z,98176.00
2022-09-28T02:16:43.065Z,98160.63
2022-09-28T02:22:03.494Z,98143.28
2022-09-28T02:27:15.700Z,98139.88
2022-09-28T02:32:20.915Z,98114.81
2022-09-28T02:37:23.222Z,98126.06
2022-09-28T02:42:43.581Z,98119.47
2022-09-28T02:48:10.470Z,98113.28
2022-09-28T02:53:33.969Z,98111.06
2022-09-28T02:58:54.471Z,98100.91
2022-09-28T03:04:15.067Z,98097.34
2022-09-28T03:09:22.960Z,98092.41
2022-09-28T03:14:25.021Z,98094.28
2022-09-28T03:19:33.741Z,98089.38
2022-09-28T03:24:35.968Z,98090.63
2022-09-28T03:29:39.436Z,98073.47
2022-09-28T03:34:42.831Z,98078.22
2022-09-28T03:39:45.468Z,98073.78
2022-09-28T03:44:47.464Z,98065.53
2022-09-28T03:49:49.587Z,98061.28
2022-09-28T03:54:51.501Z,98048.38
2022-09-28T03:59:53.597Z,98040.88
2022-09-28T04:04:55.485Z,98025.53
2022-09-28T04:09:57.708Z,98027.81
2022-09-28T04:14:59.773Z,98024.13
2022-09-28T04:20:03.340Z,98023.03
2022-09-28T04:25:23.941Z,98017.56
2022-09-28T04:30:25.992Z,98008.50
2022-09-28T04:35:28.186Z,98006.97
2022-09-28T04:40:30.413Z,97991.94
2022-09-28T04:45:33.293Z,97988.84
2022-09-28T04:50:41.994Z,97993.78
2022-09-28T04:56:01.343Z,97990.38
2022-09-28T05:01:08.301Z,97992.19
2022-09-28T05:06:30.790Z,97996.03
2022-09-28T05:11:53.110Z,97985.16
2022-09-28T05:16:57.552Z,97977.78
2022-09-28T05:22:07.303Z,97968.75
2022-09-28T05:27:14.505Z,97971.38
2022-09-28T05:32:18.411Z,97970.47
2022-09-28T05:37:31.760Z,97963.66
2022-09-28T05:42:33.677Z,97956.88
2022-09-28T05:47:40.338Z,97963.53
2022-09-28T05:52:44.010Z,97961.41
2022-09-28T05:57:46.423Z,97935.34
2022-09-28T06:03:03.427Z,97950.34
2022-09-28T06:08:12.833Z,97950.03
2022-09-28T06:13:20.054Z,97941.69
2022-09-28T06:18:22.275Z,97938.66
2022-09-28T06:23:48.164Z,97933.00
2022-09-28T06:28:51.505Z,97920.22
2022-09-28T06:33:53.878Z,97929.75
2022-09-28T06:38:56.371Z,97937.41
2022-09-28T06:43:58.941Z,97934.63
2022-09-28T06:49:19.816Z,97933.19
2022-09-28T06:54:40.557Z,97936.16
2022-09-28T07:00:05.390Z,97939.31
2022-09-28T07:05:09.586Z,97927.09
2022-09-28T07:10:34.802Z,97922.06
2022-09-28T07:16:01.984Z,97924.75
2022-09-28T07:21:08.453Z,97914.84
2022-09-28T07:26:11.440Z,97916.91
2022-09-28T07:31:48.930Z,97915.97
2022-09-28T07:37:02.593Z,97918.41
2022-09-28T07:42:05.688Z,97916.09
2022-09-28T07:47:07.814Z,97919.88
2022-09-28T07:52:29.730Z,97922.00
2022-09-28T07:58:01.771Z,97914.50
2022-09-28T08:03:32.798Z,97910.56
2022-09-28T08:08:35.808Z,97905.28
2022-09-28T08:13:39.020Z,97907.28
2022-09-28T08:19:07.137Z,97902.69
2022-09-28T08:24:09.271Z,97905.56
2022-09-28T08:29:11.703Z,97895.59
2022-09-28T08:34:38.611Z,97899.09
2022-09-28T08:40:05.350Z,97899.28
2022-09-28T08:45:36.703Z,97892.38
2022-09-28T08:51:15.734Z,97881.31
2022-09-28T08:57:07.200Z,97881.03
2022-09-28T09:02:21.331Z,97890.03
2022-09-28T09:07:42.626Z,97882.91
2022-09-28T09:13:03.527Z,97883.31
2022-09-28T09:18:23.012Z,97881.75
2022-09-28T09:24:04.445Z,97869.88
2022-09-28T09:29:18.424Z,97887.81
2022-09-28T09:34:39.438Z,97893.97
2022-09-28T09:40:09.212Z,97885.72
2022-09-28T09:45:40.308Z,97882.41
2022-09-28T09:51:06.568Z,97888.41
2022-09-28T09:56:24.721Z,97888.66
2022-09-28T10:01:53.719Z,97894.91
2022-09-28T10:07:06.857Z,97891.72
2022-09-28T10:12:18.914Z,97902.66
2022-09-28T10:17:26.844Z,97889.22
2022-09-28T10:22:47.562Z,97889.34
2022-09-28T10:27:52.811Z,97899.13
2022-09-28T10:32:59.379Z,97901.34
2022-09-28T10:38:13.553Z,97913.19
2022-09-28T10:43:15.526Z,97903.16
2022-09-28T10:48:21.839Z,97881.16
2022-09-28T10:53:23.970Z,97897.94
2022-09-28T10:58:55.893Z,97889.53
2022-09-28T11:04:10.509Z,97895.56
2022-09-28T11:09:31.051Z,97869.53
2022-09-28T11:14:42.678Z,97886.34
2022-09-28T11:20:01.452Z,97877.53
2022-09-28T11:25:26.122Z,97902.34
2022-09-28T11:30:33.799Z,97907.66
2022-09-28T11:36:14.191Z,97904.28
2022-09-28T11:41:28.115Z,97893.50
2022-09-28T11:46:33.339Z,97903.44
2022-09-28T11:51:45.918Z,97901.50
2022-09-28T11:56:50.596Z,97905.03
2022-09-28T12:02:21.017Z,97908.31
2022-09-28T12:08:05.859Z,97903.91
2022-09-28T12:13:47.779Z,97906.81
2022-09-28T12:18:56.448Z,97891.00
2022-09-28T12:24:13.821Z,97913.59
2022-09-28T12:29:22.970Z,97921.25
2022-09-28T12:34:25.136Z,97905.16
2022-09-28T12:39:56.374Z,97916.59
2022-09-28T12:45:24.998Z,97912.63
2022-09-28T12:50:42.739Z,97911.91
2022-09-28T12:56:01.077Z,97919.44
2022-09-28T13:01:44.626Z,97911.34
2022-09-28T13:07:15.350Z,97907.22
2022-09-28T13:12:37.002Z,97909.00
2022-09-28T13:17:59.273Z,97911.16
2022-09-28T13:23:15.779Z,97914.13
2022-09-28T13:28:21.325Z,97922.94
2022-09-28T13:33:38.440Z,97915.53
2022-09-28T13:38:49.843Z,97922.81
2022-09-28T13:44:13.516Z,97918.53
2022-09-28T13:49:16.034Z,97917.72
2022-09-28T13:54:18.075Z,97909.13
2022-09-28T13:59:30.397Z,97908.09
2022-09-28T14:05:01.815Z,97913.44
2022-09-28T14:10:16.278Z,97913.19
2022-09-28T14:15:30.788Z,97925.84
2022-09-28T14:20:35.259Z,97924.06
2022-09-28T14:25:47.561Z,97928.63
2022-09-28T14:30:51.512Z,97932.19
2022-09-28T14:36:07.843Z,97936.94
2022-09-28T14:41:34.651Z,97927.56
2022-09-28T14:46:44.357Z,97945.97
2022-09-28T14:51:58.541Z,97950.69
2022-09-28T14:57:04.324Z,97959.25
2022-09-28T15:02:15.220Z,97970.25
2022-09-28T15:07:20.157Z,97976.69
2022-09-28T15:12:27.025Z,97991.41
2022-09-28T15:17:38.477Z,97985.75
2022-09-28T15:22:46.975Z,97997.44
2022-09-28T15:27:54.994Z,98006.69
2022-09-28T15:33:18.924Z,98016.13
2022-09-28T15:38:21.215Z,98018.97
2022-09-28T15:43:30.895Z,98027.91
2022-09-28T15:48:56.228Z,98024.25
2022-09-28T15:54:05.366Z,98031.66
2022-09-28T15:59:18.155Z,98032.03
2022-09-28T16:04:39.501Z,98028.69
2022-09-28T16:10:13.680Z,98032.53
2022-09-28T16:15:23.809Z,98025.47
2022-09-28T16:20:31.952Z,98024.41
2022-09-28T16:25:39.051Z,98026.34
2022-09-28T16:31:01.134Z,98024.16
2022-09-28T16:36:05.320Z,98027.31
2022-09-28T16:41:08.988Z,98028.84
2022-09-28T16:46:18.328Z,98030.03
2022-09-28T16:51:22.563Z,98029.72
2022-09-28T16:56:26.438Z,98024.31
2022-09-28T17:01:30.226Z,98030.88
2022-09-28T17:06:32.797Z,98041.28
2022-09-28T17:11:35.090Z,98046.59
2022-09-28T17:22:01.797Z,98055.44
2022-09-28T17:27:03.926Z,98054.53
2022-09-28T17:32:14.011Z,98062.06
2022-09-28T17:37:16.543Z,98062.22
2022-09-28T17:42:18.904Z,98057.72
2022-09-28T17:47:21.046Z,98059.13
2022-09-28T17:52:23.266Z,98055.88
2022-09-28T17:57:25.243Z,98055.63
2022-09-28T18:02:27.414Z,98059.34
2022-09-28T18:07:31.412Z,98045.22
2022-09-28T18:12:34.846Z,98066.41
2022-09-28T18:17:37.071Z,98063.00
2022-09-28T18:22:39.487Z,98068.16
2022-09-28T18:27:41.636Z,98061.22
2022-09-28T18:32:43.723Z,98049.19
2022-09-28T18:37:45.635Z,98045.69
2022-09-28T18:42:50.207Z,98052.31
2022-09-28T18:47:52.385Z,98053.63
2022-09-28T18:52:54.531Z,98048.31
2022-09-28T18:57:56.663Z,98040.72
2022-09-28T19:03:00.070Z,98054.78
2022-09-28T19:08:02.637Z,98061.09
2022-09-28T19:13:04.926Z,98061.09
2022-09-28T19:18:07.432Z,98056.81
2022-09-28T19:23:09.511Z,98045.66
2022-09-28T19:28:11.558Z,98058.84
2022-09-28T19:33:13.690Z,98056.16
2022-09-28T19:38:16.658Z,98056.22
2022-09-28T19:43:21.460Z,98066.31
2022-09-28T19:48:27.849Z,98068.16
2022-09-28T19:53:32.885Z,98072.50
2022-09-28T19:58:36.693Z,98073.59
2022-09-28T20:03:38.992Z,98090.56
2022-09-28T20:08:42.679Z,98074.88
2022-09-28T20:13:46.570Z,98096.84
2022-09-28T20:18:51.847Z,98102.75
2022-09-28T20:23:54.127Z,98116.47
2022-09-28T20:28:56.812Z,98112.41
2022-09-28T20:33:58.970Z,98120.38
2022-09-28T20:39:02.378Z,98125.84
2022-09-28T20:44:06.355Z,98129.47
2022-09-28T20:49:08.745Z,98145.47
2022-09-28T20:54:10.615Z,98150.91
2022-09-28T20:59:12.895Z,98150.00
2022-09-28T21:04:15.018Z,98161.88
2022-09-28T21:09:17.057Z,98159.53
2022-09-28T21:14:19.333Z,98159.41
2022-09-28T21:19:24.236Z,98157.56
2022-09-28T21:24:26.602Z,98150.22
2022-09-28T21:29:28.883Z,98155.53
2022-09-28T21:34:30.894Z,98156.13
2022-09-28T21:39:32.822Z,98160.94
2022-09-28T21:44:34.963Z,98164.97
2022-09-28T21:49:36.950Z,98164.06
2022-09-28T21:54:38.964Z,98156.13
2022-09-28T21:59:40.889Z,98172.97
2022-09-28T22:04:42.877Z,98173.06
2022-09-28T22:09:48.527Z,98172.69
2022-09-28T22:14:52.423Z,98184.75
2022-09-28T22:19:54.356Z,98188.97
2022-09-28T22:24:56.419Z,98185.78
2022-09-28T22:29:58.670Z,98192.06
2022-09-28T22:35:00.775Z,98186.88
2022-09-28T22:40:02.983Z,98189.34
2022-09-28T22:45:05.967Z,98188.94
2022-09-28T22:50:08.400Z,98179.75
2022-09-28T22:55:10.646Z,98193.88
2022-09-28T23:00:13.410Z,98196.53
2022-09-28T23:05:17.110Z,98197.56
2022-09-28T23:10:19.271Z,98196.34
2022-09-28T23:15:22.436Z,98197.81
2022-09-28T23:20:24.509Z,98187.22
2022-09-28T23:25:28.274Z,98198.38
2022-09-28T23:30:30.580Z,98196.34
2022-09-28T23:35:33.988Z,98199.22
2022-09-28T23:40:36.199Z,98203.94
2022-09-28T23:45:38.410Z,98200.91
2022-09-28T23:50:41.476Z,98201.94
2022-09-28T23:55:43.777Z,98206.25
